sensor_id;sensor_type;location;lat;lon;timestamp;temperature;humidity
41987;DHT22;28361;50.740;7.084;2022-08-07T00:23:57;18.80;1.00
41987;DHT22;28361;50.740;7.084;2022-08-07T00:26:22;15.30;32.00
41987;DHT22;28361;50.740;7.084;2022-08-07T00:28:48;15.40;38.50
41987;DHT22;28361;50.740;7.084;2022-08-07T00:31:14;15.40;36.70
41987;DHT22;28361;50.740;7.084;2022-08-07T00:33:40;15.40;31.60
41987;DHT22;28361;50.740;7.084;2022-08-07T00:36:07;15.40;34.30
41987;DHT22;28361;50.740;7.084;2022-08-07T00:38:33;15.30;28.80
41987;DHT22;28361;50.740;7.084;2022-08-07T00:41:01;15.20;29.10
41987;DHT22;28361;50.740;7.084;2022-08-07T00:43:27;15.10;29.70
41987;DHT22;28361;50.740;7.084;2022-08-07T01:07:49;15.10;33.30
41987;DHT22;28361;50.740;7.084;2022-08-07T01:10:15;14.90;42.90
41987;DHT22;28361;50.740;7.084;2022-08-07T01:12:41;15.00;42.10
41987;DHT22;28361;50.740;7.084;2022-08-07T01:15:07;14.90;44.50
41987;DHT22;28361;50.740;7.084;2022-08-07T01:17:34;14.90;40.60
41987;DHT22;28361;50.740;7.084;2022-08-07T01:20:07;14.90;46.20
41987;DHT22;28361;50.740;7.084;2022-08-07T01:22:35;14.90;47.30
41987;DHT22;28361;50.740;7.084;2022-08-07T01:25:01;14.90;47.50
41987;DHT22;28361;50.740;7.084;2022-08-07T01:27:27;14.90;44.40
41987;DHT22;28361;50.740;7.084;2022-08-07T01:29:53;14.80;45.00
41987;DHT22;28361;50.740;7.084;2022-08-07T01:32:20;14.80;47.00
41987;DHT22;28361;50.740;7.084;2022-08-07T01:34:45;14.70;45.40
41987;DHT22;28361;50.740;7.084;2022-08-07T01:37:11;14.70;52.60
41987;DHT22;28361;50.740;7.084;2022-08-07T01:39:42;14.70;51.70
41987;DHT22;28361;50.740;7.084;2022-08-07T01:42:08;14.60;49.10
41987;DHT22;28361;50.740;7.084;2022-08-07T01:44:34;14.60;53.90
41987;DHT22;28361;50.740;7.084;2022-08-07T01:47:00;14.50;53.90
41987;DHT22;28361;50.740;7.084;2022-08-07T01:49:26;14.40;57.60
41987;DHT22;28361;50.740;7.084;2022-08-07T01:51:53;14.50;59.10
41987;DHT22;28361;50.740;7.084;2022-08-07T01:54:21;14.50;56.10
41987;DHT22;28361;50.740;7.084;2022-08-07T02:02:31;14.50;60.70
41987;DHT22;28361;50.740;7.084;2022-08-07T02:05:22;14.50;60.10
41987;DHT22;28361;50.740;7.084;2022-08-07T02:07:51;14.50;61.40
41987;DHT22;28361;50.740;7.084;2022-08-07T02:10:22;14.50;60.00
41987;DHT22;28361;50.740;7.084;2022-08-07T02:12:48;14.40;59.70
41987;DHT22;28361;50.740;7.084;2022-08-07T02:15:18;14.40;61.20
41987;DHT22;28361;50.740;7.084;2022-08-07T02:17:46;14.40;70.20
41987;DHT22;28361;50.740;7.084;2022-08-07T02:20:13;14.50;69.60
41987;DHT22;28361;50.740;7.084;2022-08-07T02:22:41;14.50;66.30
41987;DHT22;28361;50.740;7.084;2022-08-07T02:25:08;14.40;65.70
41987;DHT22;28361;50.740;7.084;2022-08-07T07:17:19;18.30;18.30
41987;DHT22;28361;50.740;7.084;2022-08-07T07:19:51;18.50;28.20
41987;DHT22;28361;50.740;7.084;2022-08-07T07:22:18;19.30;23.40
41987;DHT22;28361;50.740;7.084;2022-08-07T07:27:13;20.00;9.30
41987;DHT22;28361;50.740;7.084;2022-08-07T07:29:44;20.80;4.80
41987;DHT22;28361;50.740;7.084;2022-08-07T07:32:13;21.30;1.60
41987;DHT22;28361;50.740;7.084;2022-08-07T07:34:44;21.70;1.00
41987;DHT22;28361;50.740;7.084;2022-08-07T07:37:11;22.40;1.00
41987;DHT22;28361;50.740;7.084;2022-08-07T07:39:38;22.40;1.00
41987;DHT22;28361;50.740;7.084;2022-08-07T07:42:06;22.20;1.00
41987;DHT22;28361;50.740;7.084;2022-08-07T07:44:38;22.20;1.00
41987;DHT22;28361;50.740;7.084;2022-08-07T07:47:06;22.40;1.00
41987;DHT22;28361;50.740;7.084;2022-08-07T07:49:34;22.60;1.00
41987;DHT22;28361;50.740;7.084;2022-08-07T07:52:01;22.90;1.00
41987;DHT22;28361;50.740;7.084;2022-08-07T07:54:28;23.30;1.00
41987;DHT22;28361;50.740;7.084;2022-08-07T07:56:56;23.80;1.00
41987;DHT22;28361;50.740;7.084;2022-08-07T07:59:23;24.10;1.00
41987;DHT22;28361;50.740;7.084;2022-08-07T08:01:50;24.40;1.00
41987;DHT22;28361;50.740;7.084;2022-08-07T08:04:18;24.80;1.00
41987;DHT22;28361;50.740;7.084;2022-08-07T08:06:45;24.90;1.00
41987;DHT22;28361;50.740;7.084;2022-08-07T08:09:14;24.90;1.00
41987;DHT22;28361;50.740;7.084;2022-08-07T08:11:42;24.80;1.00
41987;DHT22;28361;50.740;7.084;2022-08-07T08:14:08;24.70;1.00
41987;DHT22;28361;50.740;7.084;2022-08-07T08:16:38;25.40;1.00
41987;DHT22;28361;50.740;7.084;2022-08-07T08:19:11;25.50;1.00
41987;DHT22;28361;50.740;7.084;2022-08-07T08:21:39;25.90;1.00
41987;DHT22;28361;50.740;7.084;2022-08-07T08:24:28;26.20;1.00
41987;DHT22;28361;50.740;7.084;2022-08-07T08:27:15;26.60;1.00
41987;DHT22;28361;50.740;7.084;2022-08-07T08:29:53;26.20;1.00
41987;DHT22;28361;50.740;7.084;2022-08-07T08:32:24;26.30;1.00
41987;DHT22;28361;50.740;7.084;2022-08-07T08:34:50;26.40;1.00
41987;DHT22;28361;50.740;7.084;2022-08-07T08:37:18;26.30;1.00
41987;DHT22;28361;50.740;7.084;2022-08-07T08:39:45;26.40;1.00
41987;DHT22;28361;50.740;7.084;2022-08-07T08:42:36;26.90;1.00
41987;DHT22;28361;50.740;7.084;2022-08-07T08:45:11;27.00;1.00
41987;DHT22;28361;50.740;7.084;2022-08-07T08:48:13;27.20;1.00
41987;DHT22;28361;50.740;7.084;2022-08-07T08:51:06;27.20;1.00
41987;DHT22;28361;50.740;7.084;2022-08-07T08:54:40;27.50;1.00
41987;DHT22;28361;50.740;7.084;2022-08-07T08:56:45;27.80;1.00
41987;DHT22;28361;50.740;7.084;2022-08-07T09:01:50;27.40;1.00
41987;DHT22;28361;50.740;7.084;2022-08-07T09:04:35;27.10;1.00
41987;DHT22;28361;50.740;7.084;2022-08-07T09:07:15;27.30;1.00
41987;DHT22;28361;50.740;7.084;2022-08-07T09:12:26;26.90;1.00
41987;DHT22;28361;50.740;7.084;2022-08-07T09:24:08;27.70;1.00
41987;DHT22;28361;50.740;7.084;2022-08-07T09:26:45;28.10;1.00
41987;DHT22;28361;50.740;7.084;2022-08-07T09:29:25;28.30;1.00
41987;DHT22;28361;50.740;7.084;2022-08-07T09:31:55;28.30;1.00
41987;DHT22;28361;50.740;7.084;2022-08-07T09:34:30;28.50;1.00
41987;DHT22;28361;50.740;7.084;2022-08-07T09:40:02;29.60;1.00
41987;DHT22;28361;50.740;7.084;2022-08-07T09:42:44;29.00;1.00
41987;DHT22;28361;50.740;7.084;2022-08-07T09:45:13;29.10;1.00
41987;DHT22;28361;50.740;7.084;2022-08-07T09:53:25;29.60;1.00
41987;DHT22;28361;50.740;7.084;2022-08-07T10:10:29;29.40;1.00
41987;DHT22;28361;50.740;7.084;2022-08-07T10:21:20;31.20;1.00
41987;DHT22;28361;50.740;7.084;2022-08-07T10:24:03;30.90;1.00
41987;DHT22;28361;50.740;7.084;2022-08-07T10:32:33;31.60;1.00
41987;DHT22;28361;50.740;7.084;2022-08-07T10:38:31;32.20;1.00
41987;DHT22;28361;50.740;7.084;2022-08-07T10:46:53;31.90;1.00
41987;DHT22;28361;50.740;7.084;2022-08-07T10:49:34;32.20;1.00
41987;DHT22;28361;50.740;7.084;2022-08-07T10:57:30;32.20;1.00
41987;DHT22;28361;50.740;7.084;2022-08-07T11:00:07;32.00;1.00
41987;DHT22;28361;50.740;7.084;2022-08-07T11:06:03;32.40;1.00
41987;DHT22;28361;50.740;7.084;2022-08-07T11:16:46;29.60;1.00
41987;DHT22;28361;50.740;7.084;2022-08-07T11:27:37;29.80;1.00
41987;DHT22;28361;50.740;7.084;2022-08-07T11:30:06;30.80;1.00
41987;DHT22;28361;50.740;7.084;2022-08-07T11:35:20;31.90;1.00
41987;DHT22;28361;50.740;7.084;2022-08-07T20:11:40;31.20;1.00
41987;DHT22;28361;50.740;7.084;2022-08-07T20:14:16;22.20;1.00
41987;DHT22;28361;50.740;7.084;2022-08-07T20:16:45;22.00;1.00
41987;DHT22;28361;50.740;7.084;2022-08-07T20:19:13;22.00;1.00
41987;DHT22;28361;50.740;7.084;2022-08-07T20:21:45;22.00;1.00
41987;DHT22;28361;50.740;7.084;2022-08-07T20:24:23;22.00;1.00
41987;DHT22;28361;50.740;7.084;2022-08-07T20:26:53;22.00;1.00
41987;DHT22;28361;50.740;7.084;2022-08-07T20:29:33;21.90;1.00
41987;DHT22;28361;50.740;7.084;2022-08-07T20:32:05;21.90;1.00
41987;DHT22;28361;50.740;7.084;2022-08-07T20:34:35;21.90;1.00
41987;DHT22;28361;50.740;7.084;2022-08-07T20:37:08;21.80;1.00
41987;DHT22;28361;50.740;7.084;2022-08-07T20:39:36;21.70;1.00
41987;DHT22;28361;50.740;7.084;2022-08-07T20:42:07;21.70;1.00
41987;DHT22;28361;50.740;7.084;2022-08-07T20:44:43;21.60;1.00
41987;DHT22;28361;50.740;7.084;2022-08-07T20:47:12;21.60;1.00
41987;DHT22;28361;50.740;7.084;2022-08-07T20:49:42;21.60;1.00
41987;DHT22;28361;50.740;7.084;2022-08-07T20:52:18;21.50;1.00
41987;DHT22;28361;50.740;7.084;2022-08-07T20:54:48;21.40;1.00
41987;DHT22;28361;50.740;7.084;2022-08-07T20:57:15;21.30;1.00
41987;DHT22;28361;50.740;7.084;2022-08-07T20:59:45;21.30;1.00
41987;DHT22;28361;50.740;7.084;2022-08-07T21:02:15;21.20;1.00
41987;DHT22;28361;50.740;7.084;2022-08-07T21:05:01;21.20;1.00
41987;DHT22;28361;50.740;7.084;2022-08-07T21:07:28;21.10;1.00
41987;DHT22;28361;50.740;7.084;2022-08-07T21:09:57;21.10;1.00
41987;DHT22;28361;50.740;7.084;2022-08-07T21:12:24;21.00;1.00
41987;DHT22;28361;50.740;7.084;2022-08-07T21:14:52;21.00;1.00
41987;DHT22;28361;50.740;7.084;2022-08-07T21:17:23;20.90;1.00
41987;DHT22;28361;50.740;7.084;2022-08-07T21:19:50;20.90;1.00
41987;DHT22;28361;50.740;7.084;2022-08-07T21:22:17;20.80;1.00
41987;DHT22;28361;50.740;7.084;2022-08-07T21:25:06;20.80;1.00
41987;DHT22;28361;50.740;7.084;2022-08-07T21:27:50;20.80;1.00
41987;DHT22;28361;50.740;7.084;2022-08-07T21:30:25;20.70;1.00
41987;DHT22;28361;50.740;7.084;2022-08-07T21:33:21;20.70;1.00
41987;DHT22;28361;50.740;7.084;2022-08-07T21:35:55;20.70;1.00
41987;DHT22;28361;50.740;7.084;2022-08-07T21:41:50;20.70;1.00
41987;DHT22;28361;50.740;7.084;2022-08-07T21:45:01;20.70;1.00
41987;DHT22;28361;50.740;7.084;2022-08-07T21:47:41;20.60;1.00
41987;DHT22;28361;50.740;7.084;2022-08-07T21:50:18;20.60;1.00
41987;DHT22;28361;50.740;7.084;2022-08-07T21:53:05;20.50;1.00
41987;DHT22;28361;50.740;7.084;2022-08-07T21:58:45;20.40;1.00
41987;DHT22;28361;50.740;7.084;2022-08-07T22:01:35;20.30;1.00
41987;DHT22;28361;50.740;7.084;2022-08-07T22:04:08;20.30;1.00
41987;DHT22;28361;50.740;7.084;2022-08-07T22:09:20;20.20;1.00
41987;DHT22;28361;50.740;7.084;2022-08-07T22:11:57;20.20;1.00
41987;DHT22;28361;50.740;7.084;2022-08-07T22:14:29;20.10;1.00
41987;DHT22;28361;50.740;7.084;2022-08-07T22:16:59;20.10;1.00
41987;DHT22;28361;50.740;7.084;2022-08-07T22:22:10;20.10;1.00
41987;DHT22;28361;50.740;7.084;2022-08-07T22:24:46;20.00;1.00
41987;DHT22;28361;50.740;7.084;2022-08-07T22:30:38;19.90;1.00
41987;DHT22;28361;50.740;7.084;2022-08-07T22:33:03;19.90;1.00
41987;DHT22;28361;50.740;7.084;2022-08-07T22:35:40;19.90;1.00
41987;DHT22;28361;50.740;7.084;2022-08-07T22:43:47;19.60;1.00
41987;DHT22;28361;50.740;7.084;2022-08-07T22:49:08;19.50;1.00
41987;DHT22;28361;50.740;7.084;2022-08-07T22:57:47;19.40;1.00
41987;DHT22;28361;50.740;7.084;2022-08-07T23:00:22;19.30;3.20
41987;DHT22;28361;50.740;7.084;2022-08-07T23:02:59;19.30;3.20
41987;DHT22;28361;50.740;7.084;2022-08-07T23:11:50;19.30;2.00
41987;DHT22;28361;50.740;7.084;2022-08-07T23:17:32;19.10;3.00
